sensor_id;sensor_type;location;lat;lon;timestamp;P1;durP1;ratioP1;P2;durP2;ratioP2
13014;SDS011;6573;57.696;11.950;2022-10-16T00:01:06;13.57;;;5.43;;
13014;SDS011;6573;57.696;11.950;2022-10-16T00:03:35;15.20;;;6.17;;
13014;SDS011;6573;57.696;11.950;2022-10-16T00:06:03;17.47;;;6.20;;
13014;SDS011;6573;57.696;11.950;2022-10-16T00:08:32;15.13;;;5.10;;
13014;SDS011;6573;57.696;11.950;2022-10-16T00:11:01;19.27;;;4.93;;
13014;SDS011;6573;57.696;11.950;2022-10-16T00:13:31;12.07;;;4.67;;
13014;SDS011;6573;57.696;11.950;2022-10-16T00:16:01;21.83;;;4.83;;
13014;SDS011;6573;57.696;11.950;2022-10-16T00:18:31;22.47;;;5.17;;
13014;SDS011;6573;57.696;11.950;2022-10-16T00:21:01;20.13;;;4.80;;
13014;SDS011;6573;57.696;11.950;2022-10-16T00:23:31;15.37;;;4.03;;
13014;SDS011;6573;57.696;11.950;2022-10-16T00:26:00;15.17;;;4.03;;
13014;SDS011;6573;57.696;11.950;2022-10-16T00:28:30;12.60;;;3.60;;
13014;SDS011;6573;57.696;11.950;2022-10-16T00:31:02;19.23;;;3.50;;
13014;SDS011;6573;57.696;11.950;2022-10-16T00:33:32;17.40;;;3.00;;
13014;SDS011;6573;57.696;11.950;2022-10-16T00:36:01;10.17;;;3.13;;
13014;SDS011;6573;57.696;11.950;2022-10-16T00:38:30;12.33;;;3.00;;
13014;SDS011;6573;57.696;11.950;2022-10-16T00:40:58;16.77;;;3.47;;
13014;SDS011;6573;57.696;11.950;2022-10-16T00:43:34;14.83;;;2.93;;
13014;SDS011;6573;57.696;11.950;2022-10-16T00:46:07;15.10;;;3.00;;
13014;SDS011;6573;57.696;11.950;2022-10-16T00:48:42;13.97;;;3.57;;
13014;SDS011;6573;57.696;11.950;2022-10-16T00:51:16;10.90;;;2.40;;
13014;SDS011;6573;57.696;11.950;2022-10-16T00:53:47;14.77;;;2.90;;
13014;SDS011;6573;57.696;11.950;2022-10-16T00:56:16;12.53;;;2.60;;
13014;SDS011;6573;57.696;11.950;2022-10-16T00:58:45;11.07;;;2.60;;
13014;SDS011;6573;57.696;11.950;2022-10-16T01:01:13;12.03;;;2.63;;
13014;SDS011;6573;57.696;11.950;2022-10-16T01:03:42;12.20;;;2.57;;
13014;SDS011;6573;57.696;11.950;2022-10-16T01:06:19;13.27;;;2.10;;
13014;SDS011;6573;57.696;11.950;2022-10-16T01:09:06;16.00;;;2.90;;
13014;SDS011;6573;57.696;11.950;2022-10-16T01:11:45;10.80;;;2.60;;
13014;SDS011;6573;57.696;11.950;2022-10-16T01:14:24;10.20;;;2.20;;
13014;SDS011;6573;57.696;11.950;2022-10-16T01:17:00;13.77;;;2.43;;
13014;SDS011;6573;57.696;11.950;2022-10-16T01:19:39;10.10;;;2.53;;
13014;SDS011;6573;57.696;11.950;2022-10-16T01:22:17;11.73;;;2.80;;
13014;SDS011;6573;57.696;11.950;2022-10-16T01:24:52;9.47;;;2.00;;
13014;SDS011;6573;57.696;11.950;2022-10-16T01:27:24;14.33;;;2.90;;
13014;SDS011;6573;57.696;11.950;2022-10-16T01:29:56;14.00;;;2.17;;
13014;SDS011;6573;57.696;11.950;2022-10-16T01:32:32;13.57;;;2.90;;
13014;SDS011;6573;57.696;11.950;2022-10-16T01:35:04;12.03;;;2.70;;
13014;SDS011;6573;57.696;11.950;2022-10-16T01:37:39;17.83;;;2.70;;
13014;SDS011;6573;57.696;11.950;2022-10-16T01:40:13;9.33;;;2.20;;
13014;SDS011;6573;57.696;11.950;2022-10-16T01:42:47;19.47;;;2.60;;
13014;SDS011;6573;57.696;11.950;2022-10-16T01:45:20;16.17;;;3.00;;
13014;SDS011;6573;57.696;11.950;2022-10-16T01:47:49;12.47;;;3.23;;
13014;SDS011;6573;57.696;11.950;2022-10-16T01:50:20;15.37;;;2.57;;
13014;SDS011;6573;57.696;11.950;2022-10-16T01:52:49;12.93;;;2.57;;
13014;SDS011;6573;57.696;11.950;2022-10-16T01:55:21;18.83;;;3.07;;
13014;SDS011;6573;57.696;11.950;2022-10-16T01:57:55;8.03;;;2.00;;
13014;SDS011;6573;57.696;11.950;2022-10-16T02:00:25;12.97;;;2.77;;
13014;SDS011;6573;57.696;11.950;2022-10-16T02:02:54;15.67;;;2.57;;
13014;SDS011;6573;57.696;11.950;2022-10-16T02:05:26;12.73;;;2.73;;
13014;SDS011;6573;57.696;11.950;2022-10-16T02:07:58;16.13;;;3.40;;
13014;SDS011;6573;57.696;11.950;2022-10-16T02:10:30;10.73;;;2.10;;
13014;SDS011;6573;57.696;11.950;2022-10-16T02:13:02;8.90;;;2.57;;
13014;SDS011;6573;57.696;11.950;2022-10-16T02:15:33;9.43;;;2.40;;
13014;SDS011;6573;57.696;11.950;2022-10-16T02:18:02;18.43;;;2.60;;
13014;SDS011;6573;57.696;11.950;2022-10-16T02:20:32;13.87;;;2.90;;
13014;SDS011;6573;57.696;11.950;2022-10-16T02:23:12;11.50;;;2.40;;
13014;SDS011;6573;57.696;11.950;2022-10-16T02:25:47;10.20;;;2.17;;
13014;SDS011;6573;57.696;11.950;2022-10-16T02:28:19;13.37;;;2.33;;
13014;SDS011;6573;57.696;11.950;2022-10-16T02:30:53;18.23;;;2.77;;
13014;SDS011;6573;57.696;11.950;2022-10-16T02:33:27;17.63;;;2.53;;
13014;SDS011;6573;57.696;11.950;2022-10-16T02:35:56;11.23;;;2.63;;
13014;SDS011;6573;57.696;11.950;2022-10-16T02:38:25;12.07;;;2.53;;
13014;SDS011;6573;57.696;11.950;2022-10-16T02:40:54;17.37;;;2.43;;
13014;SDS011;6573;57.696;11.950;2022-10-16T02:43:24;17.50;;;3.37;;
13014;SDS011;6573;57.696;11.950;2022-10-16T02:45:53;10.87;;;2.33;;
13014;SDS011;6573;57.696;11.950;2022-10-16T02:48:21;17.17;;;2.63;;
13014;SDS011;6573;57.696;11.950;2022-10-16T02:50:49;9.47;;;2.20;;
13014;SDS011;6573;57.696;11.950;2022-10-16T02:53:17;12.90;;;2.70;;
13014;SDS011;6573;57.696;11.950;2022-10-16T02:55:46;15.80;;;2.47;;
13014;SDS011;6573;57.696;11.950;2022-10-16T02:58:14;13.53;;;2.40;;
13014;SDS011;6573;57.696;11.950;2022-10-16T03:00:43;10.83;;;2.73;;
13014;SDS011;6573;57.696;11.950;2022-10-16T03:03:12;8.40;;;2.33;;
13014;SDS011;6573;57.696;11.950;2022-10-16T03:05:40;10.93;;;2.70;;
13014;SDS011;6573;57.696;11.950;2022-10-16T03:08:12;15.87;;;2.33;;
13014;SDS011;6573;57.696;11.950;2022-10-16T03:10:41;15.60;;;2.60;;
13014;SDS011;6573;57.696;11.950;2022-10-16T03:13:10;12.27;;;2.73;;
13014;SDS011;6573;57.696;11.950;2022-10-16T03:15:38;13.53;;;2.83;;
13014;SDS011;6573;57.696;11.950;2022-10-16T03:18:07;19.50;;;2.70;;
13014;SDS011;6573;57.696;11.950;2022-10-16T03:20:36;13.50;;;2.40;;
13014;SDS011;6573;57.696;11.950;2022-10-16T03:23:04;14.93;;;3.17;;
13014;SDS011;6573;57.696;11.950;2022-10-16T03:25:33;15.70;;;3.10;;
13014;SDS011;6573;57.696;11.950;2022-10-16T03:28:01;14.20;;;2.63;;
13014;SDS011;6573;57.696;11.950;2022-10-16T03:30:29;14.33;;;2.80;;
13014;SDS011;6573;57.696;11.950;2022-10-16T03:32:58;16.90;;;3.00;;
13014;SDS011;6573;57.696;11.950;2022-10-16T03:35:27;17.83;;;2.83;;
13014;SDS011;6573;57.696;11.950;2022-10-16T03:37:56;15.70;;;2.53;;
13014;SDS011;6573;57.696;11.950;2022-10-16T03:40:24;18.40;;;2.47;;
13014;SDS011;6573;57.696;11.950;2022-10-16T03:42:52;19.77;;;3.03;;
13014;SDS011;6573;57.696;11.950;2022-10-16T03:45:23;16.27;;;2.80;;
13014;SDS011;6573;57.696;11.950;2022-10-16T03:47:52;10.03;;;2.40;;
13014;SDS011;6573;57.696;11.950;2022-10-16T03:50:20;20.43;;;3.27;;
13014;SDS011;6573;57.696;11.950;2022-10-16T03:52:50;12.63;;;2.37;;
13014;SDS011;6573;57.696;11.950;2022-10-16T03:55:18;13.23;;;2.70;;
13014;SDS011;6573;57.696;11.950;2022-10-16T03:57:46;15.73;;;3.20;;
13014;SDS011;6573;57.696;11.950;2022-10-16T04:00:15;14.53;;;2.73;;
13014;SDS011;6573;57.696;11.950;2022-10-16T04:02:43;15.07;;;2.83;;
13014;SDS011;6573;57.696;11.950;2022-10-16T04:05:16;13.60;;;3.30;;
13014;SDS011;6573;57.696;11.950;2022-10-16T04:07:45;12.67;;;2.47;;
13014;SDS011;6573;57.696;11.950;2022-10-16T04:10:14;16.57;;;3.30;;
13014;SDS011;6573;57.696;11.950;2022-10-16T04:12:42;14.10;;;3.30;;
13014;SDS011;6573;57.696;11.950;2022-10-16T04:15:11;10.50;;;2.80;;
13014;SDS011;6573;57.696;11.950;2022-10-16T04:17:39;13.23;;;2.50;;
13014;SDS011;6573;57.696;11.950;2022-10-16T04:20:07;16.60;;;2.70;;
13014;SDS011;6573;57.696;11.950;2022-10-16T04:22:36;13.63;;;2.50;;
13014;SDS011;6573;57.696;11.950;2022-10-16T04:25:04;14.63;;;2.80;;
13014;SDS011;6573;57.696;11.950;2022-10-16T04:27:34;13.10;;;2.30;;
13014;SDS011;6573;57.696;11.950;2022-10-16T04:30:07;11.70;;;2.53;;
13014;SDS011;6573;57.696;11.950;2022-10-16T04:32:36;11.73;;;2.60;;
13014;SDS011;6573;57.696;11.950;2022-10-16T04:35:05;13.80;;;2.80;;
13014;SDS011;6573;57.696;11.950;2022-10-16T04:37:34;19.63;;;3.23;;
13014;SDS011;6573;57.696;11.950;2022-10-16T04:40:02;14.10;;;3.10;;
13014;SDS011;6573;57.696;11.950;2022-10-16T04:42:31;11.87;;;3.17;;
13014;SDS011;6573;57.696;11.950;2022-10-16T04:45:01;15.07;;;2.87;;
13014;SDS011;6573;57.696;11.950;2022-10-16T04:47:30;11.53;;;2.60;;
13014;SDS011;6573;57.696;11.950;2022-10-16T04:49:58;12.37;;;2.53;;
13014;SDS011;6573;57.696;11.950;2022-10-16T04:52:28;13.13;;;2.80;;
13014;SDS011;6573;57.696;11.950;2022-10-16T04:54:57;13.13;;;3.10;;
13014;SDS011;6573;57.696;11.950;2022-10-16T04:57:28;17.10;;;2.67;;
13014;SDS011;6573;57.696;11.950;2022-10-16T04:59:57;9.40;;;2.53;;
13014;SDS011;6573;57.696;11.950;2022-10-16T05:02:27;12.73;;;2.50;;
13014;SDS011;6573;57.696;11.950;2022-10-16T05:04:55;13.27;;;2.63;;
13014;SDS011;6573;57.696;11.950;2022-10-16T05:07:23;11.20;;;2.40;;
13014;SDS011;6573;57.696;11.950;2022-10-16T05:09:52;12.17;;;2.33;;
13014;SDS011;6573;57.696;11.950;2022-10-16T05:12:20;9.73;;;2.73;;
13014;SDS011;6573;57.696;11.950;2022-10-16T05:14:48;13.97;;;2.83;;
13014;SDS011;6573;57.696;11.950;2022-10-16T05:17:16;11.30;;;2.57;;
13014;SDS011;6573;57.696;11.950;2022-10-16T05:19:46;9.47;;;2.47;;
13014;SDS011;6573;57.696;11.950;2022-10-16T05:22:14;16.40;;;2.93;;
13014;SDS011;6573;57.696;11.950;2022-10-16T05:24:42;10.77;;;2.57;;
13014;SDS011;6573;57.696;11.950;2022-10-16T05:27:10;16.73;;;3.40;;
13014;SDS011;6573;57.696;11.950;2022-10-16T05:29:45;15.83;;;3.73;;
13014;SDS011;6573;57.696;11.950;2022-10-16T05:32:14;15.17;;;3.33;;
13014;SDS011;6573;57.696;11.950;2022-10-16T05:34:43;13.80;;;3.80;;
13014;SDS011;6573;57.696;11.950;2022-10-16T05:37:12;10.13;;;3.13;;
13014;SDS011;6573;57.696;11.950;2022-10-16T05:39:40;12.03;;;2.90;;
13014;SDS011;6573;57.696;11.950;2022-10-16T05:42:08;13.50;;;3.03;;
13014;SDS011;6573;57.696;11.950;2022-10-16T05:44:36;10.70;;;2.70;;
13014;SDS011;6573;57.696;11.950;2022-10-16T05:47:05;15.03;;;2.70;;
13014;SDS011;6573;57.696;11.950;2022-10-16T05:49:33;12.17;;;3.40;;
13014;SDS011;6573;57.696;11.950;2022-10-16T05:52:06;14.50;;;3.13;;
13014;SDS011;6573;57.696;11.950;2022-10-16T05:54:36;12.63;;;3.00;;
13014;SDS011;6573;57.696;11.950;2022-10-16T05:57:04;13.70;;;3.10;;
13014;SDS011;6573;57.696;11.950;2022-10-16T05:59:33;12.73;;;3.27;;
13014;SDS011;6573;57.696;11.950;2022-10-16T06:02:01;11.73;;;3.17;;
13014;SDS011;6573;57.696;11.950;2022-10-16T06:04:29;13.93;;;3.47;;
13014;SDS011;6573;57.696;11.950;2022-10-16T06:06:58;16.50;;;3.80;;
13014;SDS011;6573;57.696;11.950;2022-10-16T06:09:28;14.37;;;3.73;;
13014;SDS011;6573;57.696;11.950;2022-10-16T06:11:57;14.57;;;3.47;;
13014;SDS011;6573;57.696;11.950;2022-10-16T06:14:26;14.03;;;3.90;;
13014;SDS011;6573;57.696;11.950;2022-10-16T06:16:54;14.80;;;4.33;;
13014;SDS011;6573;57.696;11.950;2022-10-16T06:19:22;14.77;;;4.13;;
13014;SDS011;6573;57.696;11.950;2022-10-16T06:21:50;16.87;;;4.27;;
13014;SDS011;6573;57.696;11.950;2022-10-16T06:24:18;15.30;;;3.93;;
13014;SDS011;6573;57.696;11.950;2022-10-16T06:26:47;15.57;;;4.50;;
13014;SDS011;6573;57.696;11.950;2022-10-16T06:29:16;17.20;;;4.40;;
13014;SDS011;6573;57.696;11.950;2022-10-16T06:31:45;15.43;;;5.13;;
13014;SDS011;6573;57.696;11.950;2022-10-16T06:34:13;15.97;;;4.43;;
13014;SDS011;6573;57.696;11.950;2022-10-16T06:36:41;13.60;;;4.53;;
13014;SDS011;6573;57.696;11.950;2022-10-16T06:39:09;13.67;;;4.60;;
13014;SDS011;6573;57.696;11.950;2022-10-16T06:41:38;17.23;;;4.33;;
13014;SDS011;6573;57.696;11.950;2022-10-16T06:44:06;12.87;;;4.47;;
13014;SDS011;6573;57.696;11.950;2022-10-16T06:46:36;11.70;;;4.93;;
13014;SDS011;6573;57.696;11.950;2022-10-16T06:49:04;11.97;;;5.80;;
13014;SDS011;6573;57.696;11.950;2022-10-16T06:51:32;8.63;;;3.90;;
13014;SDS011;6573;57.696;11.950;2022-10-16T06:54:08;10.60;;;3.87;;
13014;SDS011;6573;57.696;11.950;2022-10-16T06:56:36;17.77;;;3.93;;
13014;SDS011;6573;57.696;11.950;2022-10-16T06:59:05;21.50;;;5.50;;
13014;SDS011;6573;57.696;11.950;2022-10-16T07:01:33;16.53;;;3.70;;
13014;SDS011;6573;57.696;11.950;2022-10-16T07:04:02;13.20;;;3.70;;
13014;SDS011;6573;57.696;11.950;2022-10-16T07:06:31;10.63;;;2.70;;
13014;SDS011;6573;57.696;11.950;2022-10-16T07:09:02;9.73;;;2.37;;
13014;SDS011;6573;57.696;11.950;2022-10-16T07:11:32;7.77;;;2.00;;
13014;SDS011;6573;57.696;11.950;2022-10-16T07:14:01;9.37;;;2.10;;
13014;SDS011;6573;57.696;11.950;2022-10-16T07:16:29;9.17;;;2.13;;
13014;SDS011;6573;57.696;11.950;2022-10-16T07:19:00;13.97;;;3.13;;
13014;SDS011;6573;57.696;11.950;2022-10-16T07:21:32;7.23;;;2.10;;
13014;SDS011;6573;57.696;11.950;2022-10-16T07:24:03;8.27;;;2.40;;
13014;SDS011;6573;57.696;11.950;2022-10-16T07:26:33;12.60;;;2.10;;
13014;SDS011;6573;57.696;11.950;2022-10-16T07:29:03;9.93;;;2.03;;
13014;SDS011;6573;57.696;11.950;2022-10-16T07:31:32;10.77;;;2.27;;
13014;SDS011;6573;57.696;11.950;2022-10-16T07:34:00;12.80;;;2.27;;
13014;SDS011;6573;57.696;11.950;2022-10-16T07:36:29;11.47;;;2.20;;
13014;SDS011;6573;57.696;11.950;2022-10-16T07:38:58;8.53;;;1.80;;
13014;SDS011;6573;57.696;11.950;2022-10-16T07:41:27;6.87;;;1.53;;
13014;SDS011;6573;57.696;11.950;2022-10-16T07:43:55;9.77;;;1.93;;
13014;SDS011;6573;57.696;11.950;2022-10-16T07:46:26;10.90;;;2.07;;
13014;SDS011;6573;57.696;11.950;2022-10-16T07:48:55;13.23;;;2.47;;
13014;SDS011;6573;57.696;11.950;2022-10-16T07:51:24;12.47;;;3.07;;
13014;SDS011;6573;57.696;11.950;2022-10-16T07:53:54;14.63;;;2.77;;
13014;SDS011;6573;57.696;11.950;2022-10-16T07:56:22;9.07;;;2.23;;
13014;SDS011;6573;57.696;11.950;2022-10-16T07:58:51;12.83;;;2.57;;
13014;SDS011;6573;57.696;11.950;2022-10-16T08:01:19;10.13;;;2.10;;
13014;SDS011;6573;57.696;11.950;2022-10-16T08:03:49;13.53;;;2.83;;
13014;SDS011;6573;57.696;11.950;2022-10-16T08:06:18;14.80;;;2.40;;
13014;SDS011;6573;57.696;11.950;2022-10-16T08:08:54;15.37;;;2.77;;
13014;SDS011;6573;57.696;11.950;2022-10-16T08:11:23;16.33;;;2.40;;
13014;SDS011;6573;57.696;11.950;2022-10-16T08:13:51;10.83;;;2.17;;
13014;SDS011;6573;57.696;11.950;2022-10-16T08:16:19;13.63;;;2.10;;
13014;SDS011;6573;57.696;11.950;2022-10-16T08:18:48;13.30;;;2.40;;
13014;SDS011;6573;57.696;11.950;2022-10-16T08:21:18;13.50;;;1.90;;
13014;SDS011;6573;57.696;11.950;2022-10-16T08:23:48;11.87;;;2.40;;
13014;SDS011;6573;57.696;11.950;2022-10-16T08:26:24;15.03;;;2.77;;
13014;SDS011;6573;57.696;11.950;2022-10-16T08:28:54;13.90;;;2.43;;
13014;SDS011;6573;57.696;11.950;2022-10-16T08:31:22;16.30;;;2.20;;
13014;SDS011;6573;57.696;11.950;2022-10-16T08:33:52;11.30;;;2.10;;
13014;SDS011;6573;57.696;11.950;2022-10-16T08:36:21;15.83;;;2.37;;
13014;SDS011;6573;57.696;11.950;2022-10-16T08:38:49;14.23;;;2.53;;
13014;SDS011;6573;57.696;11.950;2022-10-16T08:44:30;12.13;;;2.40;;
13014;SDS011;6573;57.696;11.950;2022-10-16T08:47:13;17.30;;;2.83;;
13014;SDS011;6573;57.696;11.950;2022-10-16T08:49:50;15.03;;;2.30;;
13014;SDS011;6573;57.696;11.950;2022-10-16T08:52:25;13.87;;;2.57;;
13014;SDS011;6573;57.696;11.950;2022-10-16T08:54:57;14.93;;;2.50;;
13014;SDS011;6573;57.696;11.950;2022-10-16T08:57:27;20.07;;;2.67;;
13014;SDS011;6573;57.696;11.950;2022-10-16T08:59:59;15.43;;;2.23;;
13014;SDS011;6573;57.696;11.950;2022-10-16T09:02:33;13.40;;;2.60;;
13014;SDS011;6573;57.696;11.950;2022-10-16T09:05:11;13.30;;;2.77;;
13014;SDS011;6573;57.696;11.950;2022-10-16T09:08:01;15.73;;;2.93;;
13014;SDS011;6573;57.696;11.950;2022-10-16T09:10:41;15.60;;;3.10;;
13014;SDS011;6573;57.696;11.950;2022-10-16T09:13:21;18.87;;;3.03;;
13014;SDS011;6573;57.696;11.950;2022-10-16T09:15:56;14.50;;;3.30;;
13014;SDS011;6573;57.696;11.950;2022-10-16T09:18:36;13.93;;;2.53;;
13014;SDS011;6573;57.696;11.950;2022-10-16T09:21:12;16.80;;;2.67;;
13014;SDS011;6573;57.696;11.950;2022-10-16T09:23:43;18.77;;;3.00;;
13014;SDS011;6573;57.696;11.950;2022-10-16T09:26:13;14.13;;;2.70;;
13014;SDS011;6573;57.696;11.950;2022-10-16T09:28:44;17.07;;;2.83;;
13014;SDS011;6573;57.696;11.950;2022-10-16T09:31:13;19.83;;;2.60;;
13014;SDS011;6573;57.696;11.950;2022-10-16T09:33:46;14.80;;;4.77;;
13014;SDS011;6573;57.696;11.950;2022-10-16T09:36:18;13.67;;;4.50;;
13014;SDS011;6573;57.696;11.950;2022-10-16T09:38:47;16.97;;;3.40;;
13014;SDS011;6573;57.696;11.950;2022-10-16T09:41:17;17.77;;;3.30;;
13014;SDS011;6573;57.696;11.950;2022-10-16T09:43:52;7.20;;;1.23;;
13014;SDS011;6573;57.696;11.950;2022-10-16T09:46:25;14.90;;;3.20;;
13014;SDS011;6573;57.696;11.950;2022-10-16T09:48:56;15.13;;;2.53;;
13014;SDS011;6573;57.696;11.950;2022-10-16T09:51:27;20.50;;;3.17;;
13014;SDS011;6573;57.696;11.950;2022-10-16T09:53:57;16.13;;;2.70;;
13014;SDS011;6573;57.696;11.950;2022-10-16T09:56:28;11.77;;;3.20;;
13014;SDS011;6573;57.696;11.950;2022-10-16T09:59:01;15.37;;;2.63;;
13014;SDS011;6573;57.696;11.950;2022-10-16T10:01:37;18.07;;;2.67;;
13014;SDS011;6573;57.696;11.950;2022-10-16T10:04:07;15.63;;;2.77;;
13014;SDS011;6573;57.696;11.950;2022-10-16T10:06:36;13.73;;;2.30;;
13014;SDS011;6573;57.696;11.950;2022-10-16T10:09:17;12.27;;;2.20;;
13014;SDS011;6573;57.696;11.950;2022-10-16T10:11:49;19.73;;;3.10;;
13014;SDS011;6573;57.696;11.950;2022-10-16T10:14:24;14.47;;;2.43;;
13014;SDS011;6573;57.696;11.950;2022-10-16T10:17:06;20.20;;;3.33;;
13014;SDS011;6573;57.696;11.950;2022-10-16T10:19:38;21.50;;;3.10;;
13014;SDS011;6573;57.696;11.950;2022-10-16T10:22:17;14.43;;;2.50;;
13014;SDS011;6573;57.696;11.950;2022-10-16T10:24:54;14.73;;;2.63;;
13014;SDS011;6573;57.696;11.950;2022-10-16T10:27:48;21.00;;;2.93;;
13014;SDS011;6573;57.696;11.950;2022-10-16T10:30:29;20.70;;;3.23;;
13014;SDS011;6573;57.696;11.950;2022-10-16T10:33:09;15.03;;;2.80;;
13014;SDS011;6573;57.696;11.950;2022-10-16T10:35:48;15.30;;;2.40;;
13014;SDS011;6573;57.696;11.950;2022-10-16T10:38:26;15.67;;;2.77;;
13014;SDS011;6573;57.696;11.950;2022-10-16T10:41:11;14.27;;;2.80;;
13014;SDS011;6573;57.696;11.950;2022-10-16T10:43:59;13.63;;;2.80;;
13014;SDS011;6573;57.696;11.950;2022-10-16T10:46:38;19.47;;;3.17;;
13014;SDS011;6573;57.696;11.950;2022-10-16T10:49:27;17.53;;;3.17;;
13014;SDS011;6573;57.696;11.950;2022-10-16T10:52:22;18.43;;;3.83;;
13014;SDS011;6573;57.696;11.950;2022-10-16T10:55:05;10.63;;;2.67;;
13014;SDS011;6573;57.696;11.950;2022-10-16T10:57:41;15.67;;;2.77;;
13014;SDS011;6573;57.696;11.950;2022-10-16T11:00:23;19.87;;;2.73;;
13014;SDS011;6573;57.696;11.950;2022-10-16T11:02:58;17.27;;;3.00;;
13014;SDS011;6573;57.696;11.950;2022-10-16T11:05:40;18.53;;;3.17;;
13014;SDS011;6573;57.696;11.950;2022-10-16T11:08:13;18.57;;;3.07;;
13014;SDS011;6573;57.696;11.950;2022-10-16T11:10:50;19.80;;;3.23;;
13014;SDS011;6573;57.696;11.950;2022-10-16T11:13:26;32.23;;;4.10;;
13014;SDS011;6573;57.696;11.950;2022-10-16T11:16:01;19.13;;;3.80;;
13014;SDS011;6573;57.696;11.950;2022-10-16T11:18:49;27.67;;;3.90;;
13014;SDS011;6573;57.696;11.950;2022-10-16T11:21:23;18.80;;;3.57;;
13014;SDS011;6573;57.696;11.950;2022-10-16T11:23:57;23.27;;;3.63;;
13014;SDS011;6573;57.696;11.950;2022-10-16T11:26:33;18.90;;;3.10;;
13014;SDS011;6573;57.696;11.950;2022-10-16T11:29:03;19.07;;;3.63;;
13014;SDS011;6573;57.696;11.950;2022-10-16T11:31:41;21.13;;;3.20;;
13014;SDS011;6573;57.696;11.950;2022-10-16T11:34:17;18.57;;;3.30;;
13014;SDS011;6573;57.696;11.950;2022-10-16T11:36:53;23.43;;;3.83;;
13014;SDS011;6573;57.696;11.950;2022-10-16T11:39:26;16.87;;;3.10;;
13014;SDS011;6573;57.696;11.950;2022-10-16T11:41:59;17.33;;;2.50;;
13014;SDS011;6573;57.696;11.950;2022-10-16T11:44:38;18.73;;;3.13;;
13014;SDS011;6573;57.696;11.950;2022-10-16T11:47:24;22.60;;;3.17;;
13014;SDS011;6573;57.696;11.950;2022-10-16T11:50:22;23.63;;;3.17;;
13014;SDS011;6573;57.696;11.950;2022-10-16T11:52:55;23.00;;;3.57;;
13014;SDS011;6573;57.696;11.950;2022-10-16T11:55:29;18.17;;;2.70;;
13014;SDS011;6573;57.696;11.950;2022-10-16T11:58:01;13.93;;;2.90;;
13014;SDS011;6573;57.696;11.950;2022-10-16T12:00:35;19.77;;;3.77;;
13014;SDS011;6573;57.696;11.950;2022-10-16T12:03:10;7.17;;;1.50;;
13014;SDS011;6573;57.696;11.950;2022-10-16T12:06:01;12.57;;;2.10;;
13014;SDS011;6573;57.696;11.950;2022-10-16T12:08:40;18.90;;;2.90;;
13014;SDS011;6573;57.696;11.950;2022-10-16T12:11:20;17.90;;;3.43;;
13014;SDS011;6573;57.696;11.950;2022-10-16T12:14:03;29.77;;;4.87;;
13014;SDS011;6573;57.696;11.950;2022-10-16T12:16:33;27.43;;;4.43;;
13014;SDS011;6573;57.696;11.950;2022-10-16T12:19:11;25.77;;;3.60;;
13014;SDS011;6573;57.696;11.950;2022-10-16T12:21:43;22.13;;;2.97;;
13014;SDS011;6573;57.696;11.950;2022-10-16T12:24:20;28.40;;;3.37;;
13014;SDS011;6573;57.696;11.950;2022-10-16T12:26:54;29.17;;;4.53;;
13014;SDS011;6573;57.696;11.950;2022-10-16T12:29:26;24.13;;;3.60;;
13014;SDS011;6573;57.696;11.950;2022-10-16T12:32:02;23.10;;;3.37;;
13014;SDS011;6573;57.696;11.950;2022-10-16T12:34:36;22.67;;;3.83;;
13014;SDS011;6573;57.696;11.950;2022-10-16T12:37:14;23.80;;;3.97;;
13014;SDS011;6573;57.696;11.950;2022-10-16T12:39:49;27.67;;;4.20;;
13014;SDS011;6573;57.696;11.950;2022-10-16T12:42:23;26.83;;;3.30;;
13014;SDS011;6573;57.696;11.950;2022-10-16T12:45:00;22.23;;;3.00;;
13014;SDS011;6573;57.696;11.950;2022-10-16T12:47:36;21.70;;;2.60;;
13014;SDS011;6573;57.696;11.950;2022-10-16T12:50:31;17.80;;;2.93;;
13014;SDS011;6573;57.696;11.950;2022-10-16T12:53:04;17.90;;;2.67;;
13014;SDS011;6573;57.696;11.950;2022-10-16T12:55:48;14.23;;;2.00;;
13014;SDS011;6573;57.696;11.950;2022-10-16T12:58:33;19.47;;;2.60;;
13014;SDS011;6573;57.696;11.950;2022-10-16T13:01:29;20.57;;;2.60;;
13014;SDS011;6573;57.696;11.950;2022-10-16T13:04:11;18.63;;;2.40;;
13014;SDS011;6573;57.696;11.950;2022-10-16T13:06:56;18.60;;;1.87;;
13014;SDS011;6573;57.696;11.950;2022-10-16T13:09:36;10.83;;;1.73;;
13014;SDS011;6573;57.696;11.950;2022-10-16T13:12:15;18.17;;;2.17;;
13014;SDS011;6573;57.696;11.950;2022-10-16T13:15:09;15.57;;;2.00;;
13014;SDS011;6573;57.696;11.950;2022-10-16T13:17:50;16.80;;;2.07;;
13014;SDS011;6573;57.696;11.950;2022-10-16T13:20:28;10.00;;;1.73;;
13014;SDS011;6573;57.696;11.950;2022-10-16T13:23:05;15.27;;;1.93;;
13014;SDS011;6573;57.696;11.950;2022-10-16T13:25:47;14.53;;;1.90;;
13014;SDS011;6573;57.696;11.950;2022-10-16T13:28:27;10.03;;;1.67;;
13014;SDS011;6573;57.696;11.950;2022-10-16T13:30:59;11.37;;;1.80;;
13014;SDS011;6573;57.696;11.950;2022-10-16T13:33:30;13.10;;;2.20;;
13014;SDS011;6573;57.696;11.950;2022-10-16T13:36:01;13.93;;;2.23;;
13014;SDS011;6573;57.696;11.950;2022-10-16T13:38:31;10.60;;;1.83;;
13014;SDS011;6573;57.696;11.950;2022-10-16T13:41:03;10.17;;;1.70;;
13014;SDS011;6573;57.696;11.950;2022-10-16T13:43:34;8.97;;;2.00;;
13014;SDS011;6573;57.696;11.950;2022-10-16T13:46:04;13.60;;;2.40;;
13014;SDS011;6573;57.696;11.950;2022-10-16T13:48:35;15.93;;;2.57;;
13014;SDS011;6573;57.696;11.950;2022-10-16T13:51:04;15.07;;;2.00;;
13014;SDS011;6573;57.696;11.950;2022-10-16T13:53:39;15.93;;;2.13;;
13014;SDS011;6573;57.696;11.950;2022-10-16T13:56:11;15.30;;;2.20;;
13014;SDS011;6573;57.696;11.950;2022-10-16T13:58:41;11.57;;;2.33;;
13014;SDS011;6573;57.696;11.950;2022-10-16T14:01:18;14.63;;;2.20;;
13014;SDS011;6573;57.696;11.950;2022-10-16T14:04:03;12.87;;;2.03;;
13014;SDS011;6573;57.696;11.950;2022-10-16T14:06:34;13.80;;;2.37;;
13014;SDS011;6573;57.696;11.950;2022-10-16T14:09:05;19.47;;;2.10;;
13014;SDS011;6573;57.696;11.950;2022-10-16T14:11:37;14.57;;;2.90;;
13014;SDS011;6573;57.696;11.950;2022-10-16T14:14:13;13.40;;;2.43;;
13014;SDS011;6573;57.696;11.950;2022-10-16T14:16:42;14.80;;;2.40;;
13014;SDS011;6573;57.696;11.950;2022-10-16T14:19:13;11.90;;;2.13;;
13014;SDS011;6573;57.696;11.950;2022-10-16T14:21:46;16.00;;;2.63;;
13014;SDS011;6573;57.696;11.950;2022-10-16T14:24:21;18.43;;;2.40;;
13014;SDS011;6573;57.696;11.950;2022-10-16T14:26:55;13.73;;;1.93;;
13014;SDS011;6573;57.696;11.950;2022-10-16T14:29:24;15.10;;;2.30;;
13014;SDS011;6573;57.696;11.950;2022-10-16T14:31:56;17.97;;;3.17;;
13014;SDS011;6573;57.696;11.950;2022-10-16T14:34:26;15.77;;;2.50;;
13014;SDS011;6573;57.696;11.950;2022-10-16T14:37:00;12.27;;;1.97;;
13014;SDS011;6573;57.696;11.950;2022-10-16T14:39:34;13.80;;;2.43;;
13014;SDS011;6573;57.696;11.950;2022-10-16T14:42:04;13.40;;;2.97;;
13014;SDS011;6573;57.696;11.950;2022-10-16T14:44:44;13.10;;;2.13;;
13014;SDS011;6573;57.696;11.950;2022-10-16T14:47:13;11.97;;;2.00;;
13014;SDS011;6573;57.696;11.950;2022-10-16T14:49:48;12.10;;;2.27;;
13014;SDS011;6573;57.696;11.950;2022-10-16T14:52:17;10.90;;;1.97;;
13014;SDS011;6573;57.696;11.950;2022-10-16T14:54:48;14.77;;;3.50;;
13014;SDS011;6573;57.696;11.950;2022-10-16T14:57:19;19.50;;;3.30;;
13014;SDS011;6573;57.696;11.950;2022-10-16T14:59:51;17.27;;;2.30;;
13014;SDS011;6573;57.696;11.950;2022-10-16T15:02:22;19.70;;;2.77;;
13014;SDS011;6573;57.696;11.950;2022-10-16T15:04:56;17.50;;;3.30;;
13014;SDS011;6573;57.696;11.950;2022-10-16T15:07:30;14.27;;;2.70;;
13014;SDS011;6573;57.696;11.950;2022-10-16T15:09:58;16.73;;;2.67;;